Zamora / Mich., Mexico

3:58 PM CST on February 22, 2017 (GMT -0600)
Gen Ignacio Lopez Rayon | | Change Station

Elev 5226 ft 19.40 °N, 102.03 °W | Updated 18 minutes ago

Clear
Clear
77 °F
Feels Like 77 °F
N
12
Wind Variable Wind from South

Today
High -- | Low -- °F
--% Chance of Precip.
Yesterday
High -- | Low -- °F
Precip. -- in
Pressure 30.10 in
Visibility 15.0 miles
Clouds Clear
Dew Point 45 °F
Humidity 32%
Rainfall 0.00 in
Snow Depth Not available.
7:13 AM 6:51 PM
Waning Crescent, 15% visible
METAR MMPN 222140Z 18010KT 15SM SKC 25/07 A3010 RMK HZY SC
Pressure 30.10 in
Visibility 15.0 miles
Clouds Clear
Dew Point 45 °F
Humidity 32%
Rainfall 0.00 in
Snow Depth Not available.
7:13 AM 6:51 PM
Waning Crescent, 15% visible
METAR MMPN 222140Z 18010KT 15SM SKC 25/07 A3010 RMK HZY SC

Get Your Daily Forecast Email!

Thanks for signing up!

Be on the lookout for a verification email in your inbox.

You'll start receiving the daily forecast at 8 AM.

×

10-Day Weather Forecast

No radar image for this location.
×

Almanac

Astronomy

Feb. 22, 2017 Rise Set
Actual Time
Civil Twilight
Nautical Twilight
Astronomical Twilight
Moon
Length of Visible Light
Length of Day
Tomorrow will be .
, % of the Moon is Illuminated

Today's Extremes

Country Highs Country Lows

Community

WunderPhotos

Upload Photos

1,962,540 photos uploaded!

WunderBlog® & News

Nearby

Air Quality

  Air Quality AQ Index Pollutant
Not available.

Snow Depth

Station Depth Elevation

Earthquake Activity

City Distance Mag. Time & Date
Minimum magnitude displayed is 2.5.

Coastal Water Temperatures

Place Temperature

Stations

Nearby Weather Stations

Station Location Temp. Windchill Dew Point Humidity Wind Precip. Elev Updated Type